Latest Coastal Weather Observations for Northern Endeavour (near 10.5S 126E)

IDD60701

Issued at 1:21 pm CST Wednesday 22 April 2015 (issued every 10 minutes, with the page automatically refreshed every 10 minutes)

About coastal observations | Map of coastal stations | Coastal observations for NT | Marine services | Other Formats
Station Details ID: 200212 Name: NORTHERN ENDEAVOUR Lat: -10.61 Lon: 125.98 Height: 16.0 m
Data from the previous 72 hours. | See also: Recent months for locations in Northern Territory
Date/Time
CST
Temp

°C
Wind Pressure Rain
since 9am
mm
Weather Cloud Vis
km
Sea
Height
m
Swell
Dir
 
Speed
knots
Gust
knots
hPa Trend Height
m
Period
s
Dir
22/01:10pm 28.3 E 11 16 1010.5 - - - Partly cloudy 10 - - - -
22/01:00pm 29.3 ESE 13 14 1010.7 - - - Partly cloudy 10 - - - -
22/12:50pm 29.8 ESE 15 17 1010.8 - - - Partly cloudy 10 - - - -
22/12:40pm 30.2 E 14 16 1010.9 - - - - 10 - - - -
22/12:30pm 30.4 ESE 13 15 1011.0 - - - - 10 - - - -
22/12:20pm 30.1 ESE 13 15 1011.0 - - - - 10 - - - -
22/12:10pm 29.3 ESE 12 14 1011.1 - - - Partly cloudy 10 - - - -
22/12:00pm 29.0 ESE 11 13 1011.4 - - - Partly cloudy 10 - - - -
22/11:50am 29.0 E 12 13 1011.5 - - - Partly cloudy 10 - - - -
22/11:40am 28.5 ESE 11 12 1011.6 - - - Partly cloudy 10 - - - -
22/11:30am 28.4 ESE 11 12 1011.6 - - - Partly cloudy 10 - - - -
22/11:20am 28.3 ESE 12 13 1011.8 - - - Partly cloudy 10 - - - -
22/11:10am 27.6 ESE 13 13 1011.9 - - - Partly cloudy 10 - - - -
22/11:00am 28.0 E 13 15 1012.0 - - - Partly cloudy 10 - - - -
22/10:50am 28.4 E 14 14 1012.0 - - - Partly cloudy 10 - - - -
22/10:40am 28.8 ESE 12 17 1011.9 - - - Partly cloudy 10 - - - -
22/10:30am 28.9 SE 10 11 1011.8 - - - - 10 - - - -
22/10:20am 28.9 SE 10 11 1011.8 - - - - 10 - - - -
22/10:10am 29.1 SE 10 11 1011.9 - - - - 10 - - - -
22/10:00am 29.3 ESE 8 11 1011.9 - - - Partly cloudy 10 - - - -
22/09:50am 29.2 SE 8 9 1011.9 - - - Partly cloudy 10 - - - -
22/09:40am 29.4 SE 8 9 1011.9 - - - Partly cloudy 10 - - - -
22/09:30am 29.1 SE 8 9 1011.9 - - - Partly cloudy 10 - - - -
22/09:20am 28.8 SE 7 8 1011.9 - - - Partly cloudy 10 - - - -
22/09:10am 29.1 SE 7 9 1011.6 - - - Partly cloudy 10 - - - -
22/09:00am 29.4 SE 6 8 1011.7 - - - Partly cloudy 10 - - - -
22/08:50am 30.3 ESE 5 6 1011.6 - - - Partly cloudy 10 - - - -
22/08:40am 29.0 SE 9 9 1011.7 - - - Partly cloudy 10 - - - -
22/08:30am 28.7 ESE 7 10 1011.6 - - - Partly cloudy 10 - - - -
22/08:20am 28.3 ESE 7 14 1011.5 - - - Partly cloudy 10 - - - -
22/08:10am 28.5 NE 4 4 1011.4 - - - Partly cloudy 10 - - - -
22/08:00am 28.2 N 3 5 1011.1 - - - Partly cloudy 10 - - - -
22/07:50am 28.0 NNW 5 5 1011.0 - - - Partly cloudy 10 - - - -
22/07:40am 28.4 N 7 6 1010.8 - - - Partly cloudy 10 - - - -
22/07:30am 28.3 N 5 8 1010.7 - - - Partly cloudy 10 - - - -
22/07:20am 28.2 NW 4 6 1010.6 - - - Partly cloudy 10 - - - -
22/07:10am 28.1 WNW 3 3 1010.5 - - - Partly cloudy 10 - - - -
22/07:00am 28.0 NW 3 3 1010.4 - - - Partly cloudy 10 - - - -
22/06:50am 28.0 NW 3 3 1010.4 - - - Partly cloudy 10 - - - -
22/06:40am 28.0 - 3 4 1010.1 - - - Partly cloudy 10 - - - -
22/06:30am 28.0 NNW 3 4 1009.9 - - - - 10 - - - -
22/06:20am 27.9 N 3 4 1009.9 - - - - 10 - - - -
22/06:10am 27.9 N 4 4 1009.7 - - - - 10 - - - -
22/06:00am 27.8 NNE 3 4 1009.6 - - - - 10 - - - -
22/05:50am 27.8 NNE 2 3 1009.5 - - - - 10 - - - -
22/05:40am 27.7 N 3 2 1009.6 - - - - 10 - - - -
22/05:30am 27.8 - 5 7 1009.5 - - - - 10 - - - -
22/05:20am 27.7 N 5 6 1009.5 - - - - 10 - - - -
22/05:10am 27.5 N 6 6 1009.5 - - - - 10 - - - -
22/05:00am 27.4 N 7 6 1009.6 - - - - 10 - - - -
22/04:50am 27.4 N 8 9 1009.5 - - - - 10 - - - -
22/04:40am 27.3 NNW 10 10 1009.3 - - - Partly cloudy 10 - - - -
22/04:30am 27.2 NNW 9 12 1009.2 - - - Partly cloudy 10 - - - -
22/04:20am 27.0 NNW 8 10 1009.3 - - - Partly cloudy 10 - - - -
22/04:10am 26.7 NNW 6 7 1009.3 - - - Partly cloudy 10 - - - -
22/04:00am 26.5 NNW 7 7 1009.4 - - - Partly cloudy 10 - - - -
22/03:50am 25.7 NNW 10 9 1009.3 - - - Partly cloudy 10 - - - -
22/03:40am 26.6 N 16 15 1009.3 - - - Partly cloudy 10 - - - -
22/03:31am 25.8 N 16 26 1009.4 - - - Partly cloudy 1 - - - -
22/03:30am 26.1 N 15 30 1009.4 - - - Partly cloudy 0.4 - - - -
22/03:20am 27.9 - 10 11 1009.3 - - - Partly cloudy 10 - - - -
22/03:10am 27.8 N 9 9 1009.4 - - - Partly cloudy 10 - - - -
22/03:00am 27.3 N 8 10 1009.4 - - - Partly cloudy 10 - - - -
22/02:50am 27.0 N 6 7 1009.5 - - - Partly cloudy 10 - - - -
22/02:40am 26.8 N 5 7 1009.7 - - - Partly cloudy 10 - - - -
22/02:30am 26.5 NNE 5 6 1009.8 - - - Partly cloudy 10 - - - -
22/02:20am 26.2 NNE 4 4 1010.1 - - - Partly cloudy 10 - - - -
22/02:10am 25.9 NNE 4 4 1010.1 - - - Partly cloudy 10 - - - -
22/02:00am 25.6 N 6 5 1010.1 - - - Partly cloudy 9 - - - -
22/01:50am 25.5 NNE 10 9 1010.1 - - - Partly cloudy 5 - - - -
22/01:40am 25.8 NNE 16 18 1010.3 - - - Partly cloudy 2 - - - -
22/01:30am 26.2 NNE 15 17 1010.2 - - - Partly cloudy 10 - - - -
22/01:20am 26.3 NE 16 18 1010.2 - - - Partly cloudy 10 - - - -
22/01:10am 26.5 NE 13 14 1010.3 - - - Partly cloudy 2 - - - -
22/01:00am 27.3 NNE 9 11 1010.3 - - - Partly cloudy 10 - - - -
22/12:50am 27.0 NE 9 10 1010.5 - - - Partly cloudy 10 - - - -
22/12:40am 27.2 NE 12 15 1010.8 - - - Partly cloudy 10 - - - -
22/12:30am 27.1 NNE 11 16 1010.8 - - - Partly cloudy 10 - - - -
22/12:20am 27.2 NNE 13 14 1010.9 - - - Partly cloudy 10 - - - -
22/12:10am 27.1 ENE 13 15 1011.1 - - - Partly cloudy 10 - - - -
22/12:00am 28.1 E 17 19 1011.1 - - - Partly cloudy 10 - - - -
 
Date/Time
CST
Temp

°C
Wind Pressure Rain
since 9am
mm
Weather Cloud Vis
km
Sea
Height
m
Swell
Dir
 
Speed
knots
Gust
knots
hPa Trend Height
m
Period
s
Dir
21/11:50pm 27.6 E 16 19 1010.9 - - - Partly cloudy 10 - - - -
21/11:40pm 27.8 E 17 24 1010.8 - - - Partly cloudy 10 - - - -
21/11:30pm 28.4 E 15 17 1010.7 - - - Partly cloudy 10 - - - -
21/11:20pm 28.3 E 13 21 1010.8 - - - Partly cloudy 10 - - - -
21/11:10pm 28.4 E 14 16 1010.9 - - - Partly cloudy 10 - - - -
21/11:00pm 28.4 E 16 19 1010.8 - - - Partly cloudy 10 - - - -
21/10:50pm 28.3 E 16 19 1010.9 - - - Partly cloudy 10 - - - -
21/10:40pm 28.4 E 14 17 1011.0 - - - Partly cloudy 10 - - - -
21/10:30pm 28.5 E 18 19 1011.0 - - - Partly cloudy 10 - - - -
21/10:20pm 28.4 E 14 19 1010.8 - - - Partly cloudy 10 - - - -
21/10:10pm 28.3 E 17 24 1010.8 - - - Partly cloudy 10 - - - -
21/10:00pm 28.1 E 16 17 1010.8 - - - Partly cloudy 10 - - - -
21/09:50pm 28.2 E 15 17 1010.8 - - - Partly cloudy 10 - - - -
21/09:40pm 28.3 E 15 20 1010.7 - - - Partly cloudy 10 - - - -
21/09:30pm 28.4 E 15 20 1010.6 - - - Partly cloudy 10 - - - -
21/09:20pm 28.4 E 14 19 1010.5 - - - Partly cloudy 10 - - - -
21/09:10pm 28.6 E 14 19 1010.4 - - - Partly cloudy 10 - - - -
21/09:00pm 28.3 E 12 14 1010.2 - - - Partly cloudy 10 - - - -
21/08:50pm 28.3 E 15 16 1010.0 - - - Partly cloudy 10 - - - -
21/08:40pm 28.6 E 13 22 1010.0 - - - Partly cloudy 10 - - - -
21/08:30pm 28.6 E 17 20 1010.0 - - - Partly cloudy 10 - - - -
21/08:20pm 28.8 E 18 20 1010.0 - - - Partly cloudy 10 - - - -
21/08:10pm 28.7 E 18 21 1009.9 - - - Partly cloudy 10 - - - -
21/08:00pm 28.7 E 18 22 1009.7 - - - Partly cloudy 10 - - - -
21/07:50pm 28.7 ENE 21 22 1009.5 - - - Partly cloudy 10 - - - -
21/07:40pm 28.7 E 19 25 1009.4 - - - Partly cloudy 10 - - - -
21/07:30pm 28.8 E 19 22 1009.4 - - - Partly cloudy 10 - - - -
21/07:20pm 28.7 E 18 22 1009.1 - - - Partly cloudy 10 - - - -
21/07:10pm 28.6 E 18 22 1009.0 - - - Partly cloudy 10 - - - -
21/07:00pm 28.6 E 18 22 1008.8 - - - Partly cloudy 10 - - - -
21/06:50pm 28.6 E 17 22 1008.6 - - - Partly cloudy 10 - - - -
21/06:40pm 28.5 E 19 21 1008.5 - - - Partly cloudy 10 - - - -
21/06:30pm 28.6 E 17 22 1008.3 - - - Partly cloudy 10 - - - -
21/06:20pm 28.6 E 16 20 1008.2 - - - Partly cloudy 10 - - - -
21/06:10pm 28.5 E 18 22 1008.1 - - - Partly cloudy 10 - - - -
21/06:00pm 28.4 E 16 17 1008.1 - - - Partly cloudy 10 - - - -
21/05:50pm 28.2 E 18 20 1008.1 - - - Partly cloudy 10 - - - -
21/05:40pm 28.2 E 14 20 1008.1 - - - Partly cloudy 10 - - - -
21/05:30pm 28.1 E 15 16 1008.1 - - - Partly cloudy 10 - - - -
21/05:20pm 28.1 E 13 20 1008.2 - - - Partly cloudy 10 - - - -
21/05:10pm 27.9 E 12 16 1008.3 - - - Partly cloudy 10 - - - -
21/05:00pm 28.1 ESE 15 17 1008.4 - - - Partly cloudy 10 - - - -
21/04:50pm 27.9 E 14 14 1008.4 - - - Partly cloudy 10 - - - -
21/04:40pm 28.0 E 13 15 1008.3 - - - Partly cloudy 10 - - - -
21/04:30pm 27.6 E 12 15 1008.3 - - - Partly cloudy 10 - - - -
21/04:20pm 27.7 E 15 17 1008.5 - - - Partly cloudy 10 - - - -
21/04:10pm 27.7 E 16 21 1008.6 - - - Partly cloudy 10 - - - -
21/04:00pm 27.5 E 15 20 1008.8 - - - Partly cloudy 10 - - - -
21/03:50pm 27.6 E 13 16 1008.7 - - - Partly cloudy 10 - - - -
21/03:40pm 27.7 ESE 16 16 1008.8 - - - Partly cloudy 10 - - - -
21/03:30pm 28.2 ESE 18 22 1008.9 - - - Partly cloudy 10 - - - -
21/03:20pm 28.2 ESE 17 19 1009.1 - - - Partly cloudy 10 - - - -
21/03:10pm 28.2 ESE 14 18 1009.2 - - - Partly cloudy 10 - - - -
21/03:00pm 28.0 ESE 12 16 1009.2 - - - Partly cloudy 10 - - - -
21/02:50pm 27.8 ESE 11 12 1009.3 - - - Partly cloudy 10 - - - -
21/02:40pm 27.5 ESE 11 12 1009.5 - - - Partly cloudy 10 - - - -
21/02:30pm 27.2 SE 12 12 1009.9 - - - Partly cloudy 10 - - - -
21/02:20pm 27.0 SE 14 14 1010.3 - - - Partly cloudy 10 - - - -
21/02:10pm 27.1 SE 15 16 1010.5 - - - Partly cloudy 10 - - - -
21/02:00pm 27.4 SE 15 17 1010.7 - - - Partly cloudy 10 - - - -
21/01:50pm 27.2 SE 16 16 1010.7 - - - Partly cloudy 10 - - - -
21/01:40pm 26.8 SE 15 16 1010.9 - - - Partly cloudy 10 - - - -
21/01:30pm 26.4 SE 16 15 1011.0 - - - Partly cloudy 10 - - - -
21/01:20pm 26.2 SE 18 18 1011.3 - - - Partly cloudy 10 - - - -
21/01:10pm 26.3 ESE 19 20 1011.4 - - - Partly cloudy 10 - - - -
21/01:00pm 25.7 ESE 18 21 1011.8 - - - Partly cloudy 10 - - - -
21/12:50pm 25.8 ESE 19 21 1012.0 - - - Partly cloudy 10 - - - -
21/12:40pm 25.8 ESE 17 21 1012.3 - - - Partly cloudy 10 - - - -
21/12:30pm 25.6 ESE 16 19 1012.5 - - - Partly cloudy 10 - - - -
21/12:20pm 25.1 ESE 12 18 1012.7 - - - Partly cloudy 10 - - - -
21/12:10pm 24.8 E 9 12 1012.9 - - - Partly cloudy 10 - - - -
21/12:00pm 24.7 E 10 10 1012.9 - - - Partly cloudy 10 - - - -
21/11:50am 24.6 E 11 13 1013.2 - - - Partly cloudy 7 - - - -
21/11:40am 24.8 ENE 11 13 1013.6 - - - Partly cloudy 5 - - - -
21/11:30am 24.9 ENE 10 14 1013.9 - - - Partly cloudy 4 - - - -
21/11:20am 24.6 E 11 11 1014.0 - - - Partly cloudy 4 - - - -
21/11:10am 24.5 E 15 14 1014.3 - - - Partly cloudy 5 - - - -
21/11:00am 24.5 NE 13 18 1014.5 - - - Partly cloudy 3 - - - -
21/10:50am 24.4 ENE 11 17 1014.7 - - - Partly cloudy 1 - - - -
21/10:40am 24.1 E 12 13 1014.7 - - - Partly cloudy 0.9 - - - -
21/10:30am 24.0 E 10 14 1014.6 - - - Partly cloudy 1 - - - -
21/10:20am 23.8 E 11 11 1014.2 - - - Partly cloudy 3 - - - -
21/10:10am 23.8 E 11 15 1014.1 - - - Partly cloudy 2 - - - -
21/10:00am 24.1 ESE 17 15 1013.9 - - - Partly cloudy 2 - - - -
21/09:50am 25.1 ESE 17 22 1013.8 - - - Partly cloudy 8 - - - -
21/09:40am 25.4 ESE 14 16 1013.3 - - - Partly cloudy 10 - - - -
21/09:30am 26.1 ESE 15 19 1012.8 - - - Partly cloudy 10 - - - -
21/09:20am 25.6 ESE 13 15 1012.9 - - - Partly cloudy 10 - - - -
21/09:10am 25.0 ESE 7 12 1012.9 - - - Partly cloudy 7 - - - -
21/09:00am 24.6 E 6 8 1012.7 - - - Partly cloudy 8 - - - -
21/08:50am 24.1 E 6 6 1012.4 - - - Partly cloudy 10 - - - -
21/08:40am 24.0 NE 6 7 1012.4 - - - Partly cloudy 10 - - - -
21/08:30am 23.7 ENE 10 10 1012.7 - - - Partly cloudy 10 - - - -
21/08:20am 23.5 ENE 13 13 1012.7 - - - Partly cloudy 6 - - - -
21/08:10am 24.0 ENE 16 22 1012.8 - - - Partly cloudy 4 - - - -
21/08:00am 23.8 ENE 12 11 1012.7 - - - Partly cloudy 2 - - - -
21/07:50am 24.2 ENE 19 20 1012.4 - - - Partly cloudy 2 - - - -
21/07:40am 24.7 E 17 25 1012.0 - - - Partly cloudy 5 - - - -
21/07:30am 24.6 E 12 20 1011.7 - - - Partly cloudy 10 - - - -
21/07:20am 24.4 E 12 13 1011.7 - - - Partly cloudy 10 - - - -
21/07:10am 24.1 E 13 18 1011.5 - - - Partly cloudy 8 - - - -
21/07:00am 24.1 ENE 14 17 1011.6 - - - Partly cloudy 2 - - - -
21/06:50am 23.6 E 19 20 1011.5 - - - Partly cloudy 3 - - - -
21/06:45am 24.2 E 16 29 1011.5 - - - Partly cloudy 1 - - - -
21/06:40am 24.8 E 13 19 1011.5 - - - Partly cloudy 3 - - - -
21/06:30am 24.1 ENE 20 19 1011.6 - - - Partly cloudy 0.8 - - - -
21/06:20am 24.4 NE 29 31 1011.1 - - - Partly cloudy 0.9 - - - -
21/06:11am 25.7 NNE 20 35 1010.2 - - - Partly cloudy 1 - - - -
21/06:10am 25.3 NNE 19 25 1010.2 - - - Partly cloudy 2 - - - -
21/06:06am 26.5 NNE 16 26 1010.1 - - - Partly cloudy 4 - - - -
21/06:00am 25.7 NNE 14 16 1010.4 - - - Partly cloudy 0.7 - - - -
21/05:50am 26.6 NNE 14 18 1010.4 - - - Partly cloudy 10 - - - -
21/05:40am 26.5 NNE 15 17 1010.3 - - - Partly cloudy 8 - - - -
21/05:30am 26.5 NNE 18 18 1010.1 - - - Partly cloudy 10 - - - -
21/05:20am 26.1 NNE 17 24 1010.3 - - - Partly cloudy 10 - - - -
21/05:10am 26.4 NE 17 18 1010.5 - - - Partly cloudy 10 - - - -
21/05:00am 26.3 NE 15 22 1010.5 - - - Partly cloudy 10 - - - -
21/04:50am 26.6 ENE 14 16 1010.6 - - - Partly cloudy 10 - - - -
21/04:40am 26.3 ENE 16 19 1010.5 - - - Partly cloudy 7 - - - -
21/04:30am 25.7 E 19 22 1010.4 - - - Partly cloudy 4 - - - -
21/04:20am 24.8 E 27 25 1010.2 - - - Partly cloudy 0.9 - - - -
21/04:10am 24.5 E 29 32 1010.2 - - - Partly cloudy 1 - - - -
21/04:04am 24.6 E 22 35 1010.3 - - - Partly cloudy 2 - - - -
21/04:00am 25.7 E 17 32 1010.0 - - - Partly cloudy 10 - - - -
21/03:59am 26.2 E 15 29 1010.3 - - - Partly cloudy 10 - - - -
21/03:50am 25.7 ESE 15 16 1010.2 - - - Partly cloudy 8 - - - -
21/03:40am 27.2 ENE 11 20 1010.1 - - - Partly cloudy 9 - - - -
21/03:30am 26.5 E 11 12 1010.3 - - - Partly cloudy 10 - - - -
21/03:20am 26.3 ENE 15 15 1010.1 - - - Partly cloudy 10 - - - -
21/03:10am 26.4 ENE 15 17 1010.0 - - - Partly cloudy 10 - - - -
21/03:00am 26.2 E 19 24 1010.4 - - - Partly cloudy 10 - - - -
21/02:52am 25.8 E 15 26 1010.5 - - - Partly cloudy 2 - - - -
21/02:50am 26.2 E 12 33 1010.4 - - - Partly cloudy 2 - - - -
21/02:40am 26.2 ENE 8 9 1010.1 - - - Partly cloudy 9 - - - -
21/02:30am 25.7 ENE 13 16 1010.4 - - - Partly cloudy 5 - - - -
21/02:20am 26.2 E 17 17 1010.6 - - - Partly cloudy 2 - - - -
21/02:10am 26.2 ESE 23 24 1010.3 - - - Partly cloudy 10 - - - -
21/02:00am 26.6 ESE 17 28 1010.1 - - - Partly cloudy 10 - - - -
21/01:59am 26.8 ESE 16 26 1010.1 - - - Partly cloudy 10 - - - -
21/01:50am 28.2 E 10 15 1010.6 - - - Partly cloudy 10 - - - -
21/01:40am 27.9 E 10 12 1010.6 - - - Partly cloudy 10 - - - -
21/01:30am 27.6 E 15 15 1010.5 - - - Partly cloudy 10 - - - -
21/01:20am 27.4 E 15 18 1010.7 - - - Partly cloudy 10 - - - -
21/01:10am 27.0 E 16 18 1010.8 - - - Partly cloudy 10 - - - -
21/01:00am 27.0 E 14 16 1011.1 - - - Partly cloudy 10 - - - -
21/12:50am 27.1 E 13 13 1011.2 - - - Partly cloudy 10 - - - -
21/12:40am 27.0 E 19 21 1011.0 - - - Partly cloudy 10 - - - -
21/12:30am 26.7 ENE 22 25 1011.2 - - - Partly cloudy 10 - - - -
21/12:20am 26.4 ENE 25 26 1011.3 - - - Partly cloudy 10 - - - -
21/12:10am 25.1 E 28 33 1011.4 - - - Partly cloudy 1 - - - -
21/12:05am 25.5 E 17 39 1011.2 - - - Partly cloudy 0.7 - - - -
21/12:00am 28.3 ENE 8 11 1011.3 - - - Partly cloudy 10 - - - -
 
Date/Time
CST
Temp

°C
Wind Pressure Rain
since 9am
mm
Weather Cloud Vis
km
Sea
Height
m
Swell
Dir
 
Speed
knots
Gust
knots
hPa Trend Height
m
Period
s
Dir
20/11:50pm 28.4 ENE 7 9 1011.4 - - - Partly cloudy 10 - - - -
20/11:40pm 28.3 NE 7 8 1011.5 - - - Partly cloudy 10 - - - -
20/11:30pm 28.1 NE 10 11 1011.4 - - - Partly cloudy 10 - - - -
20/11:20pm 28.1 NE 12 12 1011.3 - - - Partly cloudy 10 - - - -
20/11:10pm 28.2 NE 12 16 1011.4 - - - Partly cloudy 10 - - - -
20/11:00pm 28.8 ENE 12 14 1011.5 - - - Partly cloudy 10 - - - -
20/10:50pm 28.7 ENE 11 14 1011.6 - - - Partly cloudy 10 - - - -
20/10:40pm 28.7 E 11 13 1011.6 - - - Partly cloudy 10 - - - -
20/10:30pm 28.7 E 12 18 1011.5 - - - Partly cloudy 10 - - - -
20/10:20pm 28.7 ENE 14 18 1011.6 - - - Partly cloudy 10 - - - -
20/10:10pm 28.6 ENE 12 14 1011.7 - - - Partly cloudy 10 - - - -
20/10:00pm 28.3 ENE 12 15 1011.6 - - - Partly cloudy 10 - - - -
20/09:50pm 28.2 ENE 11 14 1011.6 - - - Partly cloudy 10 - - - -
20/09:40pm 28.0 ENE 12 12 1011.7 - - - Partly cloudy 10 - - - -
20/09:30pm 28.1 ENE 12 17 1011.6 - - - Partly cloudy 10 - - - -
20/09:20pm 28.0 E 16 18 1011.4 - - - Partly cloudy 10 - - - -
20/09:10pm 28.0 E 16 20 1011.2 - - - Partly cloudy 10 - - - -
20/09:00pm 26.6 E 16 15 1011.1 - - - Partly cloudy 10 - - - -
20/08:50pm 24.5 ESE 29 23 1010.9 - - - Partly cloudy 3 - - - -
20/08:40pm 27.5 ESE 15 39 1010.5 - - - Partly cloudy 0.8 - - - -
20/08:30pm 29.5 E 12 15 1010.2 - - - Partly cloudy 10 - - - -
20/08:20pm 29.4 E 12 12 1010.1 - - - - 10 - - - -
20/08:10pm 29.4 ESE 11 12 1010.0 - - - Partly cloudy 10 - - - -
20/08:00pm 29.4 ESE 10 12 1009.9 - - - Partly cloudy 10 - - - -
20/07:50pm 29.2 E 9 11 1009.9 - - - Partly cloudy 10 - - - -
20/07:40pm 29.4 ESE 12 13 1009.8 - - - Partly cloudy 10 - - - -
20/07:30pm 29.5 ESE 12 12 1009.8 - - - Partly cloudy 10 - - - -
20/07:20pm 29.4 E 11 11 1009.7 - - - Partly cloudy 10 - - - -
20/07:10pm 29.4 E 10 11 1009.6 - - - Partly cloudy 10 - - - -
20/07:00pm 29.5 E 10 12 1009.6 - - - - 10 - - - -
20/06:50pm 29.5 E 9 14 1009.5 - - - - 10 - - - -
20/06:40pm 29.6 E 9 11 1009.5 - - - - 10 - - - -
20/06:30pm 29.7 E 9 12 1009.4 - - - Partly cloudy 10 - - - -
20/06:20pm 29.7 E 9 9 1009.3 - - - Partly cloudy 10 - - - -
20/06:10pm 29.8 E 10 12 1009.3 - - - Partly cloudy 10 - - - -
20/06:00pm 30.0 E 10 11 1009.3 - - - Partly cloudy 10 - - - -
20/05:50pm 30.0 E 11 16 1009.2 - - - Partly cloudy 10 - - - -
20/05:40pm 30.1 E 11 14 1009.3 - - - - 10 - - - -
20/05:30pm 30.0 E 13 16 1009.2 - - - - 10 - - - -
20/05:20pm 30.0 E 10 15 1009.0 - - - - 10 - - - -
20/05:10pm 29.9 E 11 14 1009.0 - - - - 10 - - - -
20/05:00pm 29.6 E 11 15 1008.9 - - - - 10 - - - -
20/04:50pm 29.8 ENE 10 13 1008.8 - - - - 10 - - - -
20/04:40pm 29.5 ENE 12 13 1008.6 - - - - 10 - - - -
20/04:30pm 29.5 ENE 8 13 1008.7 - - - - 10 - - - -
20/04:20pm 29.3 E 8 13 1008.7 - - - - 10 - - - -
20/04:10pm 29.2 E 9 9 1008.8 - - - Partly cloudy 10 - - - -
20/04:00pm 29.2 E 11 11 1008.9 - - - Partly cloudy 10 - - - -
20/03:50pm 29.4 E 9 14 1008.9 - - - Partly cloudy 10 - - - -
20/03:40pm 29.6 E 11 14 1009.1 - - - - 10 - - - -
20/03:30pm 29.9 E 11 13 1009.2 - - - Partly cloudy 10 - - - -
20/03:20pm 29.9 E 11 14 1009.2 - - - Partly cloudy 10 - - - -
20/03:10pm 29.9 E 10 14 1009.2 - - - Partly cloudy 10 - - - -
20/03:00pm 28.9 E 10 11 1009.2 - - - Partly cloudy 10 - - - -
20/02:50pm 28.6 E 12 12 1009.3 - - - Partly cloudy 10 - - - -
20/02:40pm 28.1 E 11 11 1009.3 - - - Partly cloudy 10 - - - -
20/02:30pm 27.8 E 12 12 1009.4 - - - Cloudy 10 - - - -
20/02:20pm 27.8 E 13 14 1009.5 - - - Cloudy 10 - - - -
20/02:10pm 27.9 E 12 13 1009.5 - - - Cloudy 10 - - - -
20/02:00pm 27.9 E 12 14 1009.7 - - - Partly cloudy 10 - - - -
20/01:50pm 27.4 ESE 10 13 1009.8 - - - Partly cloudy 10 - - - -
20/01:40pm 27.3 E 9 14 1009.9 - - - Partly cloudy 10 - - - -
20/01:30pm 26.9 E 13 12 1010.0 - - - Partly cloudy 10 - - - -
20/01:20pm 25.7 E 26 22 1010.4 - - - Partly cloudy 8 - - - -
20/01:10pm 27.2 E 19 35 1010.3 - - - Partly cloudy 10 - - - -
20/01:08pm 27.6 E 16 33 1010.5 - - - Partly cloudy 10 - - - -
20/01:00pm 29.5 E 13 13 1010.7 - - - Partly cloudy 10 - - - -
20/12:50pm 29.5 E 14 15 1010.8 - - - Partly cloudy 10 - - - -
20/12:40pm 29.8 E 11 17 1010.7 - - - Partly cloudy 10 - - - -
20/12:30pm 30.8 E 13 11 1010.9 - - - Partly cloudy 10 - - - -
20/12:20pm 31.9 E 15 16 1011.0 - - - Partly cloudy 10 - - - -
20/12:10pm 32.4 E 15 17 1011.0 - - - Partly cloudy 10 - - - -
20/12:00pm 32.0 E 15 19 1011.1 - - - Partly cloudy 10 - - - -
20/11:50am 32.4 E 14 15 1011.3 - - - Partly cloudy 10 - - - -
20/11:40am 32.3 E 15 17 1011.6 - - - Partly cloudy 10 - - - -
20/11:30am 32.1 E 15 16 1011.7 - - - Partly cloudy 10 - - - -
20/11:20am 32.1 E 14 15 1011.8 - - - Partly cloudy 10 - - - -
20/11:10am 31.8 E 14 15 1011.9 - - - Partly cloudy 10 - - - -
20/11:00am 32.0 E 14 16 1012.0 - - - Partly cloudy 10 - - - -
20/10:50am 31.7 E 14 14 1012.1 - - - Partly cloudy 10 - - - -
20/10:40am 31.8 E 14 15 1012.2 - - - Partly cloudy 10 - - - -
20/10:30am 31.9 E 13 15 1012.2 - - - Partly cloudy 10 - - - -
20/10:20am 31.8 E 12 12 1012.3 - - - - 10 - - - -
20/10:10am 31.6 E 13 13 1012.2 - - - Partly cloudy 10 - - - -
20/10:00am 31.5 E 12 15 1012.1 - - - Partly cloudy 10 - - - -
20/09:50am 31.3 E 11 11 1012.0 - - - Partly cloudy 10 - - - -
20/09:40am 31.1 E 12 13 1011.8 - - - Partly cloudy 10 - - - -
20/09:30am 30.9 E 12 12 1011.7 - - - Partly cloudy 10 - - - -
20/09:20am 30.5 E 12 13 1011.6 - - - Partly cloudy 10 - - - -
20/09:10am 30.4 E 11 14 1011.4 - - - Partly cloudy 10 - - - -
20/09:00am 30.7 E 12 12 1011.3 - - - Partly cloudy 10 - - - -
20/08:50am 30.7 E 12 12 1011.4 - - - Partly cloudy 10 - - - -
20/08:40am 30.6 E 11 12 1011.4 - - - Partly cloudy 10 - - - -
20/08:30am 30.4 E 11 12 1011.3 - - - Partly cloudy 10 - - - -
20/08:20am 30.1 E 12 13 1011.3 - - - Partly cloudy 10 - - - -
20/08:10am 29.8 E 12 13 1011.1 - - - Partly cloudy 10 - - - -
20/08:00am 30.0 E 11 13 1011.0 - - - Partly cloudy 10 - - - -
20/07:50am 29.5 E 8 12 1010.9 - - - Partly cloudy 10 - - - -
20/07:40am 28.8 E 8 10 1011.0 - - - Partly cloudy 10 - - - -
20/07:30am 28.8 E 9 11 1010.9 - - - Partly cloudy 10 - - - -
20/07:20am 28.8 E 10 10 1010.8 - - - Partly cloudy 10 - - - -
20/07:10am 28.7 E 8 8 1010.7 - - - Partly cloudy 10 - - - -
20/07:00am 28.8 E 11 12 1010.7 - - - Partly cloudy 10 - - - -
20/06:50am 28.8 E 10 10 1010.6 - - - Partly cloudy 10 - - - -
20/06:40am 28.8 E 8 11 1010.5 - - - Partly cloudy 10 - - - -
20/06:30am 28.7 E 9 12 1010.5 - - - Partly cloudy 10 - - - -
20/06:20am 28.7 E 9 12 1010.4 - - - Partly cloudy 10 - - - -
20/06:10am 28.7 E 8 10 1010.5 - - - Partly cloudy 10 - - - -
20/06:00am 28.6 E 8 11 1010.5 - - - Partly cloudy 10 - - - -
20/05:50am 28.6 E 8 10 1010.3 - - - Partly cloudy 10 - - - -
20/05:40am 28.6 E 7 9 1010.4 - - - Partly cloudy 10 - - - -
20/05:30am 28.6 E 8 10 1010.3 - - - - 10 - - - -
20/05:20am 28.8 E 9 10 1010.3 - - - - 10 - - - -
20/05:10am 28.6 E 7 9 1010.4 - - - - 10 - - - -
20/05:00am 28.7 E 8 12 1010.4 - - - - 10 - - - -
20/04:50am 28.6 E 9 11 1010.4 - - - - 10 - - - -
20/04:40am 28.7 E 10 13 1010.3 - - - - 10 - - - -
20/04:30am 28.7 E 9 11 1010.3 - - - - 10 - - - -
20/04:20am 28.7 E 9 11 1010.3 - - - Partly cloudy 10 - - - -
20/04:10am 28.7 E 8 11 1010.5 - - - Partly cloudy 10 - - - -
20/04:00am 28.6 E 8 9 1010.5 - - - Partly cloudy 10 - - - -
20/03:50am 28.7 ESE 9 11 1010.6 - - - Partly cloudy 10 - - - -
20/03:40am 28.6 ESE 8 9 1010.7 - - - Partly cloudy 10 - - - -
20/03:30am 28.7 ESE 8 11 1010.8 - - - Partly cloudy 10 - - - -
20/03:20am 28.7 ESE 9 10 1011.0 - - - Partly cloudy 10 - - - -
20/03:10am 28.8 ESE 10 10 1011.1 - - - Partly cloudy 10 - - - -
20/03:00am 28.7 ESE 9 13 1011.2 - - - Partly cloudy 10 - - - -
20/02:50am 28.7 ESE 10 12 1011.2 - - - Partly cloudy 10 - - - -
20/02:40am 28.8 ESE 9 12 1011.3 - - - Partly cloudy 10 - - - -
20/02:30am 28.9 ESE 10 10 1011.4 - - - Partly cloudy 10 - - - -
20/02:20am 28.9 ESE 10 11 1011.5 - - - Partly cloudy 10 - - - -
20/02:10am 28.9 ESE 11 13 1011.6 - - - Partly cloudy 10 - - - -
20/02:00am 28.8 ESE 10 14 1011.7 - - - Partly cloudy 10 - - - -
20/01:50am 28.9 ESE 14 13 1011.6 - - - Partly cloudy 10 - - - -
20/01:40am 28.9 ESE 13 16 1011.8 - - - Partly cloudy 10 - - - -
20/01:30am 29.0 ESE 15 16 1011.9 - - - Partly cloudy 10 - - - -
20/01:20am 28.9 ESE 14 16 1012.0 - - - Partly cloudy 10 - - - -
20/01:10am 28.9 ESE 12 16 1012.2 - - - Partly cloudy 10 - - - -
20/01:00am 28.3 SE 7 9 1012.5 - - - Partly cloudy 10 - - - -
20/12:50am 28.1 SE 6 6 1012.6 - - - Partly cloudy 10 - - - -
20/12:40am 28.0 ESE 8 9 1012.7 - - - Partly cloudy 10 - - - -
20/12:30am 28.4 ESE 9 10 1012.8 - - - Partly cloudy 10 - - - -
20/12:20am 27.8 ESE 10 11 1013.0 - - - Partly cloudy 10 - - - -
20/12:10am 27.9 SE 14 13 1012.9 - - - Partly cloudy 10 - - - -
20/12:00am 27.9 ESE 5 18 1012.9 - - - Partly cloudy 10 - - - -
 
Date/Time
CST
Temp

°C
Wind Pressure Rain
since 9am
mm
Weather Cloud Vis
km
Sea
Height
m
Swell
Dir
 
Speed
knots
Gust
knots
hPa Trend Height
m
Period
s
Dir
19/11:50pm 27.0 NE 3 4 1012.9 - - - Partly cloudy 10 - - - -
19/11:40pm 26.8 ESE 6 6 1012.9 - - - Partly cloudy 10 - - - -
19/11:30pm 28.4 SE 9 11 1012.9 - - - - 10 - - - -
19/11:20pm 28.3 SSE 9 14 1012.8 - - - - 10 - - - -
19/11:10pm 28.3 SSE 11 12 1012.7 - - - - 10 - - - -
19/11:00pm 28.3 SSE 11 12 1012.7 - - - - 10 - - - -
19/10:50pm 28.6 SSE 12 12 1012.8 - - - - 10 - - - -
19/10:40pm 28.4 SSE 12 12 1013.0 - - - Partly cloudy 10 - - - -
19/10:30pm 28.2 SSE 11 12 1013.2 - - - Partly cloudy 10 - - - -
19/10:20pm 28.2 SE 10 11 1013.2 - - - Partly cloudy 10 - - - -
19/10:10pm 28.0 SE 10 10 1013.2 - - - Partly cloudy 10 - - - -
19/10:00pm 28.0 SE 8 9 1013.1 - - - Partly cloudy 10 - - - -
19/09:50pm 27.8 SE 8 8 1013.0 - - - Partly cloudy 10 - - - -
19/09:40pm 27.6 SE 7 8 1012.9 - - - Partly cloudy 10 - - - -
19/09:30pm 27.6 SE 8 8 1012.9 - - - Partly cloudy 10 - - - -
19/09:20pm 27.7 SE 8 9 1012.8 - - - Partly cloudy 10 - - - -
19/09:10pm 27.6 SE 8 9 1012.5 - - - Partly cloudy 10 - - - -
19/09:00pm 27.6 SSE 9 9 1012.4 - - - Partly cloudy 10 - - - -
19/08:50pm 27.9 SE 11 11 1012.4 - - - Partly cloudy 10 - - - -
19/08:40pm 28.0 SE 13 12 1012.3 - - - Partly cloudy 10 - - - -
19/08:30pm 28.4 SE 15 17 1012.4 - - - Partly cloudy 10 - - - -
19/08:20pm 27.1 SE 15 16 1012.5 - - - Partly cloudy 10 - - - -
19/08:10pm 28.3 SE 8 21 1012.4 - - - Partly cloudy 10 - - - -
19/08:00pm 28.3 SSE 5 7 1012.1 - - - Partly cloudy 10 - - - -
19/07:50pm 28.4 SE 6 6 1012.0 - - - Partly cloudy 10 - - - -
19/07:40pm 28.2 SSE 4 5 1011.8 - - - Partly cloudy 10 - - - -
19/07:30pm 28.3 SE 5 5 1011.4 - - - Partly cloudy 10 - - - -
19/07:20pm 28.3 ESE 4 7 1011.4 - - - Partly cloudy 10 - - - -
19/07:10pm 28.3 E 4 5 1011.3 - - - Partly cloudy 10 - - - -
19/07:00pm 28.2 ESE 4 4 1011.3 - - - Partly cloudy 10 - - - -
19/06:50pm 28.4 E 3 5 1011.2 - - - Partly cloudy 10 - - - -
19/06:40pm 28.2 E 4 6 1011.1 - - - Partly cloudy 8 - - - -
19/06:30pm 28.1 NE 3 5 1010.9 - - - Partly cloudy 10 - - - -
19/06:20pm 28.0 NNE 3 4 1010.7 - - - Partly cloudy 10 - - - -
19/06:10pm 28.0 NNE 2 4 1010.7 - - - Cloudy 10 - - - -
19/06:00pm 27.8 WSW 1 1 1010.6 - - - Cloudy 10 - - - -
19/05:50pm 27.6 ENE 1 1 1010.5 - - - Partly cloudy 10 - - - -
19/05:40pm 27.6 ESE 2 3 1010.1 - - - Partly cloudy 10 - - - -
19/05:30pm 27.6 ESE 4 6 1009.9 - - - Partly cloudy 10 - - - -
19/05:20pm 27.4 SSE 8 8 1009.9 - - - Cloudy 10 - - - -
19/05:10pm 27.2 SE 11 12 1010.1 - - - Partly cloudy 10 - - - -
19/05:00pm 26.7 ESE 15 13 1009.8 - - - Partly cloudy 10 - - - -
19/04:50pm 26.3 ESE 20 17 1009.7 - - - Partly cloudy 8 - - - -
19/04:40pm 26.9 ESE 17 25 1009.8 - - - Partly cloudy 10 - - - -
19/04:39pm 27.1 ESE 16 26 1009.9 - - - Partly cloudy 10 - - - -
19/04:30pm 28.0 NNE 10 11 1009.9 - - - Partly cloudy 10 - - - -
19/04:20pm 27.9 NE 10 14 1009.8 - - - Partly cloudy 10 - - - -
19/04:10pm 28.6 NE 13 12 1009.6 - - - Partly cloudy 10 - - - -
19/04:00pm 29.2 ENE 15 16 1009.5 - - - Partly cloudy 10 - - - -
19/03:50pm 28.3 NE 10 16 1009.6 - - - Partly cloudy 10 - - - -
19/03:40pm 28.0 E 3 5 1009.4 - - - Partly cloudy 10 - - - -
19/03:30pm 27.8 E 3 4 1009.4 - - - Cloudy 10 - - - -
19/03:20pm 27.6 SE 3 4 1009.6 - - - Cloudy 10 - - - -
19/03:10pm 27.5 E 3 4 1009.7 - - - Cloudy 10 - - - -
19/03:00pm 27.5 E 5 5 1009.9 - - - Partly cloudy 10 - - - -
19/02:50pm 27.5 E 3 5 1010.0 - - - Cloudy 10 - - - -
19/02:40pm 27.1 SSE 2 4 1010.3 - - - Cloudy 10 - - - -
19/02:30pm 26.6 E 2 3 1010.4 - - - Cloudy 10 - - - -
19/02:20pm 26.3 N 4 4 1010.4 - - - Partly cloudy 10 - - - -
19/02:10pm 26.2 E 4 4 1010.5 - - - Partly cloudy 10 - - - -
19/02:00pm 26.1 ENE 12 11 1010.7 - - - Partly cloudy 10 - - - -
19/01:50pm 25.7 ENE 20 19 1011.0 - - - Partly cloudy 10 - - - -
19/01:40pm 25.7 E 34 32 1011.4 - - - Partly cloudy 1 - - - -
19/01:30pm 27.2 E 29 40 1011.0 - - - Partly cloudy 8 - - - -
19/01:28pm 27.2 E 25 43 1010.9 - - - Partly cloudy 5 - - - -
19/01:27pm 27.5 E 23 43 1011.0 - - - Partly cloudy 10 - - - -
19/01:25pm 28.5 E 20 34 1011.2 - - - Partly cloudy 10 - - - -
19/01:24pm 29.0 E 19 34 1011.3 - - - Partly cloudy 9 - - - -

Other Formats:

Comma delimited format used in spreadsheet applications
http://www.bom.gov.au/fwo/IDD60701/IDD60701.95100.axf

JavaScript Object Notation format (JSON) in row-major order
http://www.bom.gov.au/fwo/IDD60701/IDD60701.95100.json